sensor_id;sensor_type;location;lat;lon;timestamp;pressure;altitude;pressure_sealevel;temperature;humidity
5595;BME280;1003;48.002;7.788;2023-09-19T00:00:32;98937.16;;;17.10;100.00
5595;BME280;1003;48.002;7.788;2023-09-19T00:02:59;98922.91;;;17.08;100.00
5595;BME280;1003;48.002;7.788;2023-09-19T00:05:29;98926.00;;;17.14;100.00
5595;BME280;1003;48.002;7.788;2023-09-19T00:07:57;98924.63;;;17.07;100.00
5595;BME280;1003;48.002;7.788;2023-09-19T00:10:26;98915.47;;;17.03;100.00
5595;BME280;1003;48.002;7.788;2023-09-19T00:12:53;98917.09;;;17.04;100.00
5595;BME280;1003;48.002;7.788;2023-09-19T00:15:22;98910.72;;;16.95;100.00
5595;BME280;1003;48.002;7.788;2023-09-19T00:17:49;98904.66;;;16.98;100.00
5595;BME280;1003;48.002;7.788;2023-09-19T00:20:18;98894.59;;;16.96;100.00
5595;BME280;1003;48.002;7.788;2023-09-19T00:22:49;98892.28;;;16.90;100.00
5595;BME280;1003;48.002;7.788;2023-09-19T00:25:16;98884.69;;;16.90;100.00
5595;BME280;1003;48.002;7.788;2023-09-19T00:27:43;98886.44;;;16.88;100.00
5595;BME280;1003;48.002;7.788;2023-09-19T00:30:12;98889.69;;;16.92;100.00
5595;BME280;1003;48.002;7.788;2023-09-19T00:32:43;98883.97;;;16.87;100.00
5595;BME280;1003;48.002;7.788;2023-09-19T00:35:10;98882.91;;;16.92;100.00
5595;BME280;1003;48.002;7.788;2023-09-19T00:37:37;98878.81;;;16.88;100.00
5595;BME280;1003;48.002;7.788;2023-09-19T00:40:08;98873.25;;;16.80;100.00
5595;BME280;1003;48.002;7.788;2023-09-19T00:42:38;98876.53;;;16.82;100.00
5595;BME280;1003;48.002;7.788;2023-09-19T00:45:07;98866.56;;;16.77;100.00
5595;BME280;1003;48.002;7.788;2023-09-19T00:47:37;98864.75;;;16.81;100.00
5595;BME280;1003;48.002;7.788;2023-09-19T00:50:06;98867.47;;;16.76;100.00
5595;BME280;1003;48.002;7.788;2023-09-19T00:52:37;98867.38;;;16.78;100.00
5595;BME280;1003;48.002;7.788;2023-09-19T00:55:08;98864.59;;;16.84;100.00
5595;BME280;1003;48.002;7.788;2023-09-19T00:57:37;98854.78;;;16.76;100.00
5595;BME280;1003;48.002;7.788;2023-09-19T01:00:06;98856.59;;;16.73;100.00
5595;BME280;1003;48.002;7.788;2023-09-19T01:02:35;98858.31;;;16.72;100.00
5595;BME280;1003;48.002;7.788;2023-09-19T01:05:03;98848.94;;;16.74;100.00
5595;BME280;1003;48.002;7.788;2023-09-19T01:07:32;98842.06;;;16.76;100.00
5595;BME280;1003;48.002;7.788;2023-09-19T01:10:00;98839.47;;;16.78;100.00
5595;BME280;1003;48.002;7.788;2023-09-19T01:12:45;98831.19;;;16.74;100.00
5595;BME280;1003;48.002;7.788;2023-09-19T01:15:25;98831.03;;;16.77;100.00
5595;BME280;1003;48.002;7.788;2023-09-19T01:18:02;98823.38;;;16.79;100.00
5595;BME280;1003;48.002;7.788;2023-09-19T01:20:40;98825.78;;;16.82;100.00
5595;BME280;1003;48.002;7.788;2023-09-19T01:23:21;98820.69;;;16.82;100.00
5595;BME280;1003;48.002;7.788;2023-09-19T01:26:11;98811.44;;;16.81;100.00
5595;BME280;1003;48.002;7.788;2023-09-19T01:29:15;98815.69;;;16.81;100.00
5595;BME280;1003;48.002;7.788;2023-09-19T01:31:49;98805.47;;;16.82;100.00
5595;BME280;1003;48.002;7.788;2023-09-19T01:34:19;98797.47;;;16.91;100.00
5595;BME280;1003;48.002;7.788;2023-09-19T01:36:46;98794.16;;;16.89;100.00
5595;BME280;1003;48.002;7.788;2023-09-19T01:39:14;98796.69;;;16.89;100.00
5595;BME280;1003;48.002;7.788;2023-09-19T01:41:56;98787.41;;;16.90;100.00
5595;BME280;1003;48.002;7.788;2023-09-19T01:44:35;98792.25;;;16.94;100.00
5595;BME280;1003;48.002;7.788;2023-09-19T01:47:18;98784.78;;;16.91;100.00
5595;BME280;1003;48.002;7.788;2023-09-19T01:50:01;98778.06;;;16.90;100.00
5595;BME280;1003;48.002;7.788;2023-09-19T01:52:39;98784.91;;;16.88;100.00
5595;BME280;1003;48.002;7.788;2023-09-19T01:55:11;98781.63;;;16.86;100.00
5595;BME280;1003;48.002;7.788;2023-09-19T01:57:49;98784.91;;;16.88;100.00
5595;BME280;1003;48.002;7.788;2023-09-19T02:00:21;98794.16;;;16.89;100.00
5595;BME280;1003;48.002;7.788;2023-09-19T02:02:52;98793.06;;;16.95;100.00
5595;BME280;1003;48.002;7.788;2023-09-19T02:05:25;98796.47;;;16.95;100.00
5595;BME280;1003;48.002;7.788;2023-09-19T02:07:53;98793.69;;;17.00;100.00
5595;BME280;1003;48.002;7.788;2023-09-19T02:10:21;98799.63;;;17.00;100.00
5595;BME280;1003;48.002;7.788;2023-09-19T02:12:50;98808.06;;;17.01;100.00
5595;BME280;1003;48.002;7.788;2023-09-19T02:15:18;98803.19;;;16.96;100.00
5595;BME280;1003;48.002;7.788;2023-09-19T02:17:45;98807.28;;;16.99;100.00
5595;BME280;1003;48.002;7.788;2023-09-19T02:20:14;98813.06;;;17.02;100.00
5595;BME280;1003;48.002;7.788;2023-09-19T02:22:42;98808.19;;;16.98;100.00
5595;BME280;1003;48.002;7.788;2023-09-19T02:25:10;98809.09;;;16.97;100.00
5595;BME280;1003;48.002;7.788;2023-09-19T02:27:39;98807.19;;;17.02;100.00
5595;BME280;1003;48.002;7.788;2023-09-19T02:30:07;98808.81;;;17.03;100.00
5595;BME280;1003;48.002;7.788;2023-09-19T02:32:34;98810.38;;;17.05;100.00
5595;BME280;1003;48.002;7.788;2023-09-19T02:35:06;98821.31;;;17.08;100.00
5595;BME280;1003;48.002;7.788;2023-09-19T02:37:38;98819.69;;;17.07;100.00
5595;BME280;1003;48.002;7.788;2023-09-19T02:40:07;98822.16;;;17.08;100.00
5595;BME280;1003;48.002;7.788;2023-09-19T02:42:44;98821.19;;;17.11;100.00
5595;BME280;1003;48.002;7.788;2023-09-19T02:45:16;98835.47;;;17.13;100.00
5595;BME280;1003;48.002;7.788;2023-09-19T02:47:44;98827.66;;;17.18;100.00
5595;BME280;1003;48.002;7.788;2023-09-19T02:50:12;98821.06;;;17.14;100.00
5595;BME280;1003;48.002;7.788;2023-09-19T02:52:43;98822.97;;;17.09;100.00
5595;BME280;1003;48.002;7.788;2023-09-19T02:55:13;98816.88;;;16.92;100.00
5595;BME280;1003;48.002;7.788;2023-09-19T02:57:46;98807.88;;;16.85;100.00
5595;BME280;1003;48.002;7.788;2023-09-19T03:00:14;98812.16;;;16.85;100.00
5595;BME280;1003;48.002;7.788;2023-09-19T03:02:42;98808.72;;;16.86;100.00
5595;BME280;1003;48.002;7.788;2023-09-19T03:05:10;98807.94;;;16.84;100.00
5595;BME280;1003;48.002;7.788;2023-09-19T03:07:38;98812.31;;;16.80;100.00
5595;BME280;1003;48.002;7.788;2023-09-19T03:10:08;98814.22;;;16.75;100.00
5595;BME280;1003;48.002;7.788;2023-09-19T03:12:35;98820.94;;;16.76;100.00
5595;BME280;1003;48.002;7.788;2023-09-19T03:15:05;98829.31;;;16.78;100.00
5595;BME280;1003;48.002;7.788;2023-09-19T03:17:34;98834.66;;;16.72;100.00
5595;BME280;1003;48.002;7.788;2023-09-19T03:20:01;98843.16;;;16.71;100.00
5595;BME280;1003;48.002;7.788;2023-09-19T03:22:30;98834.53;;;16.75;100.00
5595;BME280;1003;48.002;7.788;2023-09-19T03:24:57;98842.00;;;16.78;100.00
5595;BME280;1003;48.002;7.788;2023-09-19T03:27:25;98842.91;;;16.77;100.00
5595;BME280;1003;48.002;7.788;2023-09-19T03:29:53;98836.09;;;16.77;100.00
5595;BME280;1003;48.002;7.788;2023-09-19T03:32:21;98831.03;;;16.77;100.00
5595;BME280;1003;48.002;7.788;2023-09-19T03:34:48;98831.75;;;16.81;100.00
5595;BME280;1003;48.002;7.788;2023-09-19T03:37:15;98837.75;;;16.78;100.00
5595;BME280;1003;48.002;7.788;2023-09-19T03:39:43;98835.19;;;16.80;100.00
5595;BME280;1003;48.002;7.788;2023-09-19T03:42:10;98837.00;;;16.76;100.00
5595;BME280;1003;48.002;7.788;2023-09-19T03:44:38;98837.75;;;16.78;100.00
5595;BME280;1003;48.002;7.788;2023-09-19T03:47:05;98840.34;;;16.77;100.00
5595;BME280;1003;48.002;7.788;2023-09-19T03:49:32;98837.19;;;16.72;100.00
5595;BME280;1003;48.002;7.788;2023-09-19T03:52:01;98839.00;;;16.68;100.00
5595;BME280;1003;48.002;7.788;2023-09-19T03:54:28;98844.81;;;16.72;100.00
5595;BME280;1003;48.002;7.788;2023-09-19T03:56:55;98846.22;;;16.79;100.00
5595;BME280;1003;48.002;7.788;2023-09-19T03:59:22;98888.47;;;16.80;100.00
5595;BME280;1003;48.002;7.788;2023-09-19T04:01:50;98882.63;;;16.78;100.00
5595;BME280;1003;48.002;7.788;2023-09-19T04:04:21;98874.56;;;16.89;100.00
5595;BME280;1003;48.002;7.788;2023-09-19T04:06:50;98886.59;;;16.85;100.00
5595;BME280;1003;48.002;7.788;2023-09-19T04:09:17;98892.41;;;16.87;100.00
5595;BME280;1003;48.002;7.788;2023-09-19T04:11:44;98900.84;;;16.88;100.00
5595;BME280;1003;48.002;7.788;2023-09-19T04:14:11;98903.38;;;16.88;100.00
5595;BME280;1003;48.002;7.788;2023-09-19T04:16:38;98902.50;;;16.89;100.00
5595;BME280;1003;48.002;7.788;2023-09-19T04:19:07;98892.28;;;16.90;100.00
5595;BME280;1003;48.002;7.788;2023-09-19T04:21:34;98898.38;;;16.86;100.00
5595;BME280;1003;48.002;7.788;2023-09-19T04:24:01;98907.72;;;16.86;100.00
5595;BME280;1003;48.002;7.788;2023-09-19T04:26:28;98909.94;;;16.93;100.00
5595;BME280;1003;48.002;7.788;2023-09-19T04:28:55;98914.19;;;16.93;100.00
5595;BME280;1003;48.002;7.788;2023-09-19T04:31:22;98914.25;;;16.91;100.00
5595;BME280;1003;48.002;7.788;2023-09-19T04:33:50;98922.69;;;16.92;100.00
5595;BME280;1003;48.002;7.788;2023-09-19T04:36:18;98920.09;;;16.93;100.00
5595;BME280;1003;48.002;7.788;2023-09-19T04:38:47;98928.47;;;16.95;100.00
5595;BME280;1003;48.002;7.788;2023-09-19T04:41:14;98932.66;;;16.96;100.00
5595;BME280;1003;48.002;7.788;2023-09-19T04:43:41;98927.19;;;17.05;100.00
5595;BME280;1003;48.002;7.788;2023-09-19T04:46:08;98936.75;;;17.00;100.00
5595;BME280;1003;48.002;7.788;2023-09-19T04:48:35;98940.97;;;17.00;100.00
5595;BME280;1003;48.002;7.788;2023-09-19T04:51:02;98938.56;;;16.97;100.00
5595;BME280;1003;48.002;7.788;2023-09-19T04:53:31;98935.84;;;17.01;100.00
5595;BME280;1003;48.002;7.788;2023-09-19T04:55:58;98940.03;;;17.02;100.00
5595;BME280;1003;48.002;7.788;2023-09-19T04:58:25;98941.03;;;16.98;100.00
5595;BME280;1003;48.002;7.788;2023-09-19T05:00:52;98946.19;;;16.97;100.00
5595;BME280;1003;48.002;7.788;2023-09-19T05:03:20;98943.00;;;16.92;100.00
5595;BME280;1003;48.002;7.788;2023-09-19T05:05:48;98950.53;;;16.93;100.00
5595;BME280;1003;48.002;7.788;2023-09-19T05:08:15;98952.09;;;16.97;100.00
5595;BME280;1003;48.002;7.788;2023-09-19T05:10:44;98945.47;;;16.93;100.00
5595;BME280;1003;48.002;7.788;2023-09-19T05:13:11;98949.72;;;16.93;100.00
5595;BME280;1003;48.002;7.788;2023-09-19T05:15:38;98958.69;;;17.01;100.00
5595;BME280;1003;48.002;7.788;2023-09-19T05:18:06;98954.56;;;16.99;100.00
5595;BME280;1003;48.002;7.788;2023-09-19T05:20:33;98957.75;;;17.04;100.00
5595;BME280;1003;48.002;7.788;2023-09-19T05:23:05;98963.78;;;17.01;100.00
5595;BME280;1003;48.002;7.788;2023-09-19T05:25:35;98959.38;;;17.05;100.00
5595;BME280;1003;48.002;7.788;2023-09-19T05:28:07;98982.19;;;17.07;100.00
5595;BME280;1003;48.002;7.788;2023-09-19T05:30:35;98979.59;;;17.08;100.00
5595;BME280;1003;48.002;7.788;2023-09-19T05:33:04;98992.28;;;17.08;100.00
5595;BME280;1003;48.002;7.788;2023-09-19T05:35:31;98977.28;;;17.02;100.00
5595;BME280;1003;48.002;7.788;2023-09-19T05:37:59;98996.41;;;17.11;100.00
5595;BME280;1003;48.002;7.788;2023-09-19T05:40:26;98995.41;;;17.15;100.00
5595;BME280;1003;48.002;7.788;2023-09-19T05:42:53;99009.72;;;17.17;100.00
5595;BME280;1003;48.002;7.788;2023-09-19T05:45:22;99006.34;;;17.17;100.00
5595;BME280;1003;48.002;7.788;2023-09-19T05:47:49;99018.00;;;17.21;100.00
5595;BME280;1003;48.002;7.788;2023-09-19T05:50:17;99021.44;;;17.20;100.00
5595;BME280;1003;48.002;7.788;2023-09-19T05:52:52;99021.38;;;17.21;100.00
5595;BME280;1003;48.002;7.788;2023-09-19T05:55:19;99029.72;;;17.25;100.00
5595;BME280;1003;48.002;7.788;2023-09-19T05:57:50;99043.31;;;17.24;100.00
5595;BME280;1003;48.002;7.788;2023-09-19T06:00:18;99048.97;;;17.30;100.00
5595;BME280;1003;48.002;7.788;2023-09-19T06:02:51;99053.97;;;17.32;100.00
5595;BME280;1003;48.002;7.788;2023-09-19T06:05:19;99050.44;;;17.36;100.00
5595;BME280;1003;48.002;7.788;2023-09-19T06:07:46;99046.97;;;17.39;100.00
5595;BME280;1003;48.002;7.788;2023-09-19T06:10:14;99060.31;;;17.44;100.00
5595;BME280;1003;48.002;7.788;2023-09-19T06:12:42;99059.34;;;17.46;100.00
5595;BME280;1003;48.002;7.788;2023-09-19T06:15:11;99065.06;;;17.51;100.00
5595;BME280;1003;48.002;7.788;2023-09-19T06:17:42;99063.34;;;17.52;100.00
5595;BME280;1003;48.002;7.788;2023-09-19T06:20:11;99071.63;;;17.57;100.00
5595;BME280;1003;48.002;7.788;2023-09-19T06:22:41;99085.84;;;17.61;100.00
5595;BME280;1003;48.002;7.788;2023-09-19T06:25:09;99100.03;;;17.67;100.00
5595;BME280;1003;48.002;7.788;2023-09-19T06:27:38;99122.91;;;17.67;100.00
5595;BME280;1003;48.002;7.788;2023-09-19T06:30:09;99122.91;;;17.67;100.00
5595;BME280;1003;48.002;7.788;2023-09-19T06:32:37;99143.84;;;17.73;100.00
5595;BME280;1003;48.002;7.788;2023-09-19T06:35:05;99145.66;;;17.70;100.00
5595;BME280;1003;48.002;7.788;2023-09-19T06:37:36;99161.72;;;17.70;100.00
5595;BME280;1003;48.002;7.788;2023-09-19T06:40:07;99102.25;;;17.76;100.00
5595;BME280;1003;48.002;7.788;2023-09-19T06:42:35;99105.81;;;17.70;100.00
5595;BME280;1003;48.002;7.788;2023-09-19T06:45:05;99121.78;;;17.74;100.00
5595;BME280;1003;48.002;7.788;2023-09-19T06:47:32;99125.88;;;17.78;100.00
5595;BME280;1003;48.002;7.788;2023-09-19T06:49:59;99137.44;;;17.85;100.00
5595;BME280;1003;48.002;7.788;2023-09-19T06:52:28;99135.44;;;17.93;100.00
5595;BME280;1003;48.002;7.788;2023-09-19T06:54:56;99141.09;;;18.00;100.00
5595;BME280;1003;48.002;7.788;2023-09-19T06:57:23;99143.63;;;18.00;100.00
5595;BME280;1003;48.002;7.788;2023-09-19T06:59:51;99151.06;;;18.04;100.00
5595;BME280;1003;48.002;7.788;2023-09-19T07:02:18;99160.91;;;18.12;100.00
5595;BME280;1003;48.002;7.788;2023-09-19T07:04:47;99167.22;;;18.24;100.00
5595;BME280;1003;48.002;7.788;2023-09-19T07:07:15;99168.28;;;18.98;100.00
5595;BME280;1003;48.002;7.788;2023-09-19T07:09:42;99179.63;;;19.66;100.00
5595;BME280;1003;48.002;7.788;2023-09-19T07:12:10;99184.81;;;20.34;100.00
5595;BME280;1003;48.002;7.788;2023-09-19T07:14:39;99203.78;;;20.96;100.00
5595;BME280;1003;48.002;7.788;2023-09-19T07:17:06;99245.66;;;20.94;100.00
5595;BME280;1003;48.002;7.788;2023-09-19T07:19:33;99286.91;;;21.37;100.00
5595;BME280;1003;48.002;7.788;2023-09-19T07:22:01;99284.03;;;21.59;100.00
5595;BME280;1003;48.002;7.788;2023-09-19T07:24:29;99283.34;;;21.06;100.00
5595;BME280;1003;48.002;7.788;2023-09-19T07:26:57;99288.28;;;20.76;100.00
5595;BME280;1003;48.002;7.788;2023-09-19T07:29:25;99296.06;;;21.08;100.00
5595;BME280;1003;48.002;7.788;2023-09-19T07:31:53;99284.75;;;21.45;100.00
5595;BME280;1003;48.002;7.788;2023-09-19T07:34:20;99281.88;;;21.51;100.00
5595;BME280;1003;48.002;7.788;2023-09-19T07:36:48;99274.66;;;20.93;100.00
5595;BME280;1003;48.002;7.788;2023-09-19T07:39:16;99277.13;;;20.61;100.00
5595;BME280;1003;48.002;7.788;2023-09-19T07:41:44;99280.03;;;20.88;100.00
5595;BME280;1003;48.002;7.788;2023-09-19T07:44:11;99281.31;;;21.13;100.00
5595;BME280;1003;48.002;7.788;2023-09-19T07:46:39;99285.44;;;21.64;100.00
5595;BME280;1003;48.002;7.788;2023-09-19T07:49:06;99287.31;;;21.92;100.00
5595;BME280;1003;48.002;7.788;2023-09-19T07:51:33;99272.03;;;22.07;100.00
5595;BME280;1003;48.002;7.788;2023-09-19T07:54:00;99273.53;;;22.41;100.00
5595;BME280;1003;48.002;7.788;2023-09-19T07:56:28;99262.19;;;22.15;100.00
5595;BME280;1003;48.002;7.788;2023-09-19T07:58:55;99261.09;;;22.35;100.00
5595;BME280;1003;48.002;7.788;2023-09-19T08:01:24;99259.38;;;22.49;100.00
5595;BME280;1003;48.002;7.788;2023-09-19T08:03:54;99244.50;;;22.26;100.00
5595;BME280;1003;48.002;7.788;2023-09-19T08:06:21;99241.97;;;22.10;100.00
5595;BME280;1003;48.002;7.788;2023-09-19T08:08:51;99250.31;;;21.98;100.00
5595;BME280;1003;48.002;7.788;2023-09-19T08:11:20;99241.56;;;22.02;100.00
5595;BME280;1003;48.002;7.788;2023-09-19T08:13:50;99243.94;;;22.05;100.00
5595;BME280;1003;48.002;7.788;2023-09-19T08:16:18;99241.31;;;22.07;100.00
5595;BME280;1003;48.002;7.788;2023-09-19T08:18:48;99250.69;;;22.06;100.00
5595;BME280;1003;48.002;7.788;2023-09-19T08:21:20;99257.19;;;22.13;100.00
5595;BME280;1003;48.002;7.788;2023-09-19T08:23:47;99265.09;;;22.09;100.00
5595;BME280;1003;48.002;7.788;2023-09-19T08:26:14;99252.53;;;22.04;100.00
5595;BME280;1003;48.002;7.788;2023-09-19T08:28:42;99259.66;;;22.15;100.00
5595;BME280;1003;48.002;7.788;2023-09-19T08:31:10;99247.75;;;22.14;100.00
5595;BME280;1003;48.002;7.788;2023-09-19T08:33:38;99259.22;;;22.07;100.00
5595;BME280;1003;48.002;7.788;2023-09-19T08:36:06;99266.59;;;22.13;100.00
5595;BME280;1003;48.002;7.788;2023-09-19T08:38:36;99257.34;;;22.10;100.00
5595;BME280;1003;48.002;7.788;2023-09-19T08:41:06;99254.72;;;22.12;100.00
5595;BME280;1003;48.002;7.788;2023-09-19T08:43:34;99252.44;;;22.21;100.00
5595;BME280;1003;48.002;7.788;2023-09-19T08:46:10;99253.09;;;22.25;100.00
5595;BME280;1003;48.002;7.788;2023-09-19T08:48:45;99258.78;;;22.30;100.00
5595;BME280;1003;48.002;7.788;2023-09-19T08:51:22;99252.78;;;22.15;100.00
5595;BME280;1003;48.002;7.788;2023-09-19T08:54:03;99252.38;;;22.07;100.00
5595;BME280;1003;48.002;7.788;2023-09-19T08:56:33;99251.97;;;22.15;100.00
5595;BME280;1003;48.002;7.788;2023-09-19T08:59:03;99260.31;;;22.63;100.00
5595;BME280;1003;48.002;7.788;2023-09-19T09:01:32;99253.47;;;22.77;100.00
5595;BME280;1003;48.002;7.788;2023-09-19T09:04:01;99251.09;;;23.03;100.00
5595;BME280;1003;48.002;7.788;2023-09-19T09:06:29;99237.53;;;22.87;100.00
5595;BME280;1003;48.002;7.788;2023-09-19T09:09:00;99235.75;;;22.89;100.00
5595;BME280;1003;48.002;7.788;2023-09-19T09:11:28;99241.50;;;23.07;100.00
5595;BME280;1003;48.002;7.788;2023-09-19T09:13:55;99239.84;;;23.20;100.00
5595;BME280;1003;48.002;7.788;2023-09-19T09:16:23;99235.31;;;23.23;100.00
5595;BME280;1003;48.002;7.788;2023-09-19T09:18:52;99234.81;;;23.04;100.00
5595;BME280;1003;48.002;7.788;2023-09-19T09:21:20;99233.88;;;22.76;100.00
5595;BME280;1003;48.002;7.788;2023-09-19T09:23:47;99230.44;;;22.47;100.00
5595;BME280;1003;48.002;7.788;2023-09-19T09:26:17;99230.25;;;22.36;100.00
5595;BME280;1003;48.002;7.788;2023-09-19T09:28:46;99235.78;;;22.14;100.00
5595;BME280;1003;48.002;7.788;2023-09-19T09:31:22;99235.50;;;22.63;100.00
5595;BME280;1003;48.002;7.788;2023-09-19T09:33:54;99232.25;;;23.04;100.00
5595;BME280;1003;48.002;7.788;2023-09-19T09:36:34;99215.31;;;23.43;100.00
5595;BME280;1003;48.002;7.788;2023-09-19T09:39:03;99208.47;;;23.29;100.00
5595;BME280;1003;48.002;7.788;2023-09-19T09:41:43;99203.28;;;23.16;100.00
5595;BME280;1003;48.002;7.788;2023-09-19T09:44:15;99207.78;;;23.54;100.00
5595;BME280;1003;48.002;7.788;2023-09-19T09:46:44;99207.13;;;23.65;100.00
5595;BME280;1003;48.002;7.788;2023-09-19T09:49:53;99197.84;;;23.62;100.00
5595;BME280;1003;48.002;7.788;2023-09-19T09:52:45;99187.75;;;23.46;100.00
5595;BME280;1003;48.002;7.788;2023-09-19T09:55:12;99185.88;;;23.63;100.00
5595;BME280;1003;48.002;7.788;2023-09-19T09:57:40;99187.81;;;23.45;100.00
5595;BME280;1003;48.002;7.788;2023-09-19T10:00:11;99189.41;;;23.33;100.00
5595;BME280;1003;48.002;7.788;2023-09-19T10:02:46;99182.00;;;23.28;100.00
5595;BME280;1003;48.002;7.788;2023-09-19T10:05:15;99174.19;;;23.44;100.00
5595;BME280;1003;48.002;7.788;2023-09-19T10:07:56;99181.97;;;23.16;100.00
5595;BME280;1003;48.002;7.788;2023-09-19T10:10:31;99178.06;;;22.96;100.00
5595;BME280;1003;48.002;7.788;2023-09-19T10:13:08;99182.91;;;22.72;100.00
5595;BME280;1003;48.002;7.788;2023-09-19T10:15:39;99185.44;;;22.58;100.00
5595;BME280;1003;48.002;7.788;2023-09-19T10:18:11;99179.97;;;22.49;100.00
5595;BME280;1003;48.002;7.788;2023-09-19T10:20:44;99182.53;;;22.78;100.00
5595;BME280;1003;48.002;7.788;2023-09-19T10:23:12;99181.31;;;23.12;100.00
5595;BME280;1003;48.002;7.788;2023-09-19T10:25:43;99174.38;;;23.00;100.00
5595;BME280;1003;48.002;7.788;2023-09-19T10:28:16;99175.84;;;22.61;100.00
5595;BME280;1003;48.002;7.788;2023-09-19T10:30:48;99177.88;;;22.56;100.00
5595;BME280;1003;48.002;7.788;2023-09-19T10:33:18;99170.16;;;22.42;100.00
5595;BME280;1003;48.002;7.788;2023-09-19T10:35:49;99161.69;;;22.56;100.00
5595;BME280;1003;48.002;7.788;2023-09-19T10:38:19;99158.72;;;22.76;100.00
5595;BME280;1003;48.002;7.788;2023-09-19T10:40:50;99163.38;;;22.69;100.00
5595;BME280;1003;48.002;7.788;2023-09-19T10:43:20;99155.34;;;22.61;100.00
5595;BME280;1003;48.002;7.788;2023-09-19T10:45:49;99161.94;;;22.37;100.00
5595;BME280;1003;48.002;7.788;2023-09-19T10:48:19;99164.50;;;22.37;100.00
5595;BME280;1003;48.002;7.788;2023-09-19T10:50:55;99156.34;;;22.59;100.00
5595;BME280;1003;48.002;7.788;2023-09-19T10:53:27;99158.63;;;23.06;100.00
5595;BME280;1003;48.002;7.788;2023-09-19T10:56:01;99150.94;;;23.33;100.00
5595;BME280;1003;48.002;7.788;2023-09-19T10:58:37;99138.16;;;23.46;100.00
5595;BME280;1003;48.002;7.788;2023-09-19T11:01:06;99139.72;;;23.75;100.00
5595;BME280;1003;48.002;7.788;2023-09-19T11:03:38;99139.84;;;23.99;100.00
5595;BME280;1003;48.002;7.788;2023-09-19T11:06:12;99138.19;;;23.98;100.00
5595;BME280;1003;48.002;7.788;2023-09-19T11:08:59;99135.34;;;24.03;100.00
5595;BME280;1003;48.002;7.788;2023-09-19T11:11:47;99122.69;;;23.87;100.00
5595;BME280;1003;48.002;7.788;2023-09-19T11:14:40;99126.81;;;23.90;100.00
5595;BME280;1003;48.002;7.788;2023-09-19T11:17:42;99120.84;;;23.62;100.00
5595;BME280;1003;48.002;7.788;2023-09-19T11:20:23;99124.03;;;23.53;100.00
5595;BME280;1003;48.002;7.788;2023-09-19T11:23:21;99124.88;;;23.26;100.00
5595;BME280;1003;48.002;7.788;2023-09-19T11:25:49;99121.13;;;23.45;100.00
5595;BME280;1003;48.002;7.788;2023-09-19T11:28:31;99107.19;;;23.49;100.00
5595;BME280;1003;48.002;7.788;2023-09-19T11:31:50;99103.59;;;23.51;100.00
5595;BME280;1003;48.002;7.788;2023-09-19T11:34:41;99110.56;;;23.89;100.00
5595;BME280;1003;48.002;7.788;2023-09-19T11:37:59;99108.56;;;23.67;100.00
5595;BME280;1003;48.002;7.788;2023-09-19T11:40:37;99104.75;;;23.60;100.00
5595;BME280;1003;48.002;7.788;2023-09-19T11:43:38;99098.47;;;23.24;100.00
5595;BME280;1003;48.002;7.788;2023-09-19T11:46:08;99094.81;;;23.01;100.00
5595;BME280;1003;48.002;7.788;2023-09-19T11:48:39;99097.72;;;23.10;100.00
5595;BME280;1003;48.002;7.788;2023-09-19T11:51:18;99095.41;;;23.19;100.00
5595;BME280;1003;48.002;7.788;2023-09-19T11:53:49;99089.41;;;23.06;100.00
5595;BME280;1003;48.002;7.788;2023-09-19T11:56:19;99088.19;;;23.12;100.00
5595;BME280;1003;48.002;7.788;2023-09-19T11:58:50;99086.50;;;22.98;100.00
5595;BME280;1003;48.002;7.788;2023-09-19T12:01:24;99073.47;;;22.87;100.00
5595;BME280;1003;48.002;7.788;2023-09-19T12:03:56;99069.78;;;22.78;100.00
5595;BME280;1003;48.002;7.788;2023-09-19T12:06:27;99080.31;;;22.73;100.00
5595;BME280;1003;48.002;7.788;2023-09-19T12:08:55;99075.78;;;22.50;100.00
5595;BME280;1003;48.002;7.788;2023-09-19T12:11:27;99066.22;;;22.66;100.00
5595;BME280;1003;48.002;7.788;2023-09-19T12:13:54;99059.41;;;22.94;100.00
5595;BME280;1003;48.002;7.788;2023-09-19T12:16:26;99061.72;;;23.11;100.00
5595;BME280;1003;48.002;7.788;2023-09-19T12:18:56;99051.06;;;23.04;100.00
5595;BME280;1003;48.002;7.788;2023-09-19T12:21:26;99058.00;;;23.02;100.00
5595;BME280;1003;48.002;7.788;2023-09-19T12:24:07;99047.69;;;22.90;100.00
5595;BME280;1003;48.002;7.788;2023-09-19T12:26:43;99044.03;;;22.94;100.00
5595;BME280;1003;48.002;7.788;2023-09-19T12:29:15;99042.31;;;23.07;100.00
5595;BME280;1003;48.002;7.788;2023-09-19T12:31:54;99039.75;;;23.07;100.00
5595;BME280;1003;48.002;7.788;2023-09-19T12:34:27;99037.00;;;23.10;100.00
5595;BME280;1003;48.002;7.788;2023-09-19T12:37:07;99036.03;;;23.25;100.00
5595;BME280;1003;48.002;7.788;2023-09-19T12:39:39;99042.22;;;23.48;100.00
5595;BME280;1003;48.002;7.788;2023-09-19T12:42:10;99037.66;;;23.66;100.00
5595;BME280;1003;48.002;7.788;2023-09-19T12:44:41;99039.09;;;23.83;100.00
5595;BME280;1003;48.002;7.788;2023-09-19T12:47:13;99027.72;;;23.74;100.00
5595;BME280;1003;48.002;7.788;2023-09-19T12:50:11;99030.28;;;23.74;100.00
5595;BME280;1003;48.002;7.788;2023-09-19T12:52:45;99025.19;;;23.60;100.00
5595;BME280;1003;48.002;7.788;2023-09-19T12:55:23;99018.44;;;23.46;100.00
5595;BME280;1003;48.002;7.788;2023-09-19T12:58:18;99026.44;;;23.42;100.00
5595;BME280;1003;48.002;7.788;2023-09-19T13:00:46;99023.41;;;23.35;100.00
5595;BME280;1003;48.002;7.788;2023-09-19T13:03:18;99019.22;;;23.34;100.00
5595;BME280;1003;48.002;7.788;2023-09-19T13:05:55;99018.00;;;23.40;100.00
5595;BME280;1003;48.002;7.788;2023-09-19T13:08:28;99009.88;;;23.46;100.00
5595;BME280;1003;48.002;7.788;2023-09-19T13:11:07;99012.97;;;23.51;100.00
5595;BME280;1003;48.002;7.788;2023-09-19T13:13:37;99004.75;;;23.46;100.00
5595;BME280;1003;48.002;7.788;2023-09-19T13:16:04;99003.75;;;23.36;100.00
5595;BME280;1003;48.002;7.788;2023-09-19T13:18:44;99002.53;;;23.41;100.00
5595;BME280;1003;48.002;7.788;2023-09-19T13:21:13;99000.66;;;23.56;100.00
5595;BME280;1003;48.002;7.788;2023-09-19T13:23:51;98993.91;;;23.55;100.00
5595;BME280;1003;48.002;7.788;2023-09-19T13:26:19;99002.31;;;23.44;100.00
5595;BME280;1003;48.002;7.788;2023-09-19T13:28:46;98996.69;;;23.52;100.00
5595;BME280;1003;48.002;7.788;2023-09-19T13:31:15;99000.16;;;23.51;100.00